createdAt,value
2022-12-09T00:03:26.536Z,42.48
2022-12-09T00:08:28.564Z,42.48
2022-12-09T00:13:30.574Z,42.47
2022-12-09T00:18:32.436Z,42.61
2022-12-09T00:23:34.472Z,42.57
2022-12-09T00:28:36.487Z,42.65
2022-12-09T00:33:38.569Z,42.76
2022-12-09T00:38:40.944Z,42.77
2022-12-09T00:43:43.761Z,42.65
2022-12-09T00:48:46.250Z,42.53
2022-12-09T00:53:48.311Z,42.67
2022-12-09T00:58:50.282Z,42.94
2022-12-09T01:03:52.582Z,42.54
2022-12-09T01:08:55.111Z,42.88
2022-12-09T01:14:02.719Z,42.47
2022-12-09T01:19:07.880Z,42.47
2022-12-09T01:24:10.968Z,42.60
2022-12-09T01:29:12.781Z,42.95
2022-12-09T01:34:14.573Z,42.46
2022-12-09T01:39:16.944Z,42.52
2022-12-09T01:44:23.217Z,42.50
2022-12-09T01:49:48.362Z,42.58
2022-12-09T01:54:52.894Z,42.54
2022-12-09T01:59:55.116Z,42.52
2022-12-09T02:04:57.359Z,42.50
2022-12-09T02:09:59.962Z,42.70
2022-12-09T02:15:06.038Z,42.50
2022-12-09T02:20:29.490Z,42.49
2022-12-09T02:25:38.917Z,42.39
2022-12-09T02:31:14.305Z,42.85
2022-12-09T02:36:19.660Z,42.23
2022-12-09T02:41:27.809Z,42.46
2022-12-09T02:46:30.957Z,42.44
2022-12-09T02:51:36.162Z,42.22
2022-12-09T02:56:40.757Z,42.46
2022-12-09T03:01:51.515Z,42.21
2022-12-09T03:06:56.614Z,42.52
2022-12-09T03:12:02.259Z,42.37
2022-12-09T03:17:24.317Z,42.32
2022-12-09T03:22:29.798Z,42.23
2022-12-09T03:27:57.182Z,42.15
2022-12-09T03:32:59.613Z,42.32
2022-12-09T03:38:05.681Z,42.42
2022-12-09T03:43:23.720Z,42.03
2022-12-09T03:48:26.361Z,42.23
2022-12-09T03:53:49.797Z,42.37
2022-12-09T03:58:55.383Z,42.23
2022-12-09T04:03:58.310Z,42.28
2022-12-09T04:09:02.587Z,42.28
2022-12-09T04:14:06.326Z,42.12
2022-12-09T04:19:11.151Z,42.21
2022-12-09T04:24:13.662Z,42.15
2022-12-09T04:29:15.986Z,42.08
2022-12-09T04:34:18.090Z,41.95
2022-12-09T04:39:20.034Z,42.17
2022-12-09T04:44:22.677Z,41.94
2022-12-09T04:49:25.045Z,42.01
2022-12-09T04:54:27.101Z,42.11
2022-12-09T04:59:31.729Z,42.00
2022-12-09T05:04:33.710Z,41.99
2022-12-09T05:09:36.033Z,41.95
2022-12-09T05:14:38.475Z,42.16
2022-12-09T05:19:40.530Z,41.98
2022-12-09T05:24:44.507Z,41.80
2022-12-09T05:29:47.074Z,42.00
2022-12-09T05:34:49.150Z,42.03
2022-12-09T05:39:51.441Z,42.09
2022-12-09T05:44:55.324Z,42.18
2022-12-09T05:50:00.321Z,42.00
2022-12-09T05:55:07.219Z,42.19
2022-12-09T06:00:10.243Z,42.29
2022-12-09T06:05:12.947Z,42.18
2022-12-09T06:10:16.110Z,42.05
2022-12-09T06:15:21.622Z,42.16
2022-12-09T06:20:24.078Z,42.19
2022-12-09T06:25:26.213Z,42.01
2022-12-09T06:30:28.553Z,42.20
2022-12-09T06:35:30.915Z,42.09
2022-12-09T06:40:33.493Z,42.35
2022-12-09T06:45:36.666Z,42.22
2022-12-09T06:50:39.179Z,41.90
2022-12-09T06:55:41.112Z,42.16
2022-12-09T07:00:43.638Z,41.90
2022-12-09T07:05:46.205Z,42.13
2022-12-09T07:10:53.238Z,42.27
2022-12-09T07:15:58.461Z,41.97
2022-12-09T07:21:07.578Z,42.32
2022-12-09T07:26:10.185Z,42.22
2022-12-09T07:31:27.030Z,42.21
2022-12-09T07:36:31.542Z,42.07
2022-12-09T07:41:33.849Z,42.25
2022-12-09T07:46:36.377Z,42.13
2022-12-09T07:51:39.541Z,41.96
2022-12-09T07:56:42.252Z,42.23
2022-12-09T08:01:44.816Z,42.16
2022-12-09T08:06:47.220Z,42.11
2022-12-09T08:11:49.546Z,42.22
2022-12-09T08:16:51.731Z,41.94
2022-12-09T08:21:54.946Z,42.25
2022-12-09T08:26:57.868Z,42.51
2022-12-09T08:32:00.108Z,42.47
2022-12-09T08:37:02.712Z,42.73
2022-12-09T08:42:05.587Z,42.25
2022-12-09T08:47:08.232Z,42.20
2022-12-09T08:52:10.766Z,42.29
2022-12-09T08:57:13.006Z,42.20
2022-12-09T09:02:15.414Z,42.51
2022-12-09T09:07:17.788Z,42.83
2022-12-09T09:12:20.189Z,43.24
2022-12-09T09:17:23.596Z,43.51
2022-12-09T09:22:27.288Z,43.12
2022-12-09T09:27:29.786Z,42.87
2022-12-09T09:32:33.133Z,42.38
2022-12-09T09:37:36.290Z,42.37
2022-12-09T09:42:47.813Z,42.74
2022-12-09T09:48:01.088Z,43.08
2022-12-09T09:53:16.202Z,43.34
2022-12-09T09:58:36.720Z,43.05
2022-12-09T10:04:09.096Z,42.96
2022-12-09T10:09:22.657Z,43.03
2022-12-09T10:14:52.351Z,42.45
2022-12-09T10:20:01.124Z,43.05
2022-12-09T10:25:17.949Z,44.14
2022-12-09T10:30:20.921Z,43.57
2022-12-09T10:35:26.152Z,42.76
2022-12-09T10:40:47.418Z,42.54
2022-12-09T10:51:22.260Z,45.91
2022-12-09T10:56:30.783Z,44.62
2022-12-09T11:01:51.965Z,44.70
2022-12-09T11:07:00.155Z,42.80
2022-12-09T11:12:06.659Z,41.55
2022-12-09T11:17:22.712Z,41.33
2022-12-09T11:22:39.548Z,40.79
2022-12-09T11:27:53.994Z,42.21
2022-12-09T11:32:56.993Z,42.82
2022-12-09T11:38:04.031Z,42.52
2022-12-09T11:43:05.870Z,42.83
2022-12-09T11:48:35.037Z,41.18
2022-12-09T11:53:42.457Z,40.23
2022-12-09T11:59:00.575Z,40.18
2022-12-09T12:04:09.974Z,40.01
2022-12-09T12:09:26.697Z,39.86
2022-12-09T12:14:30.818Z,39.54
2022-12-09T12:19:35.666Z,39.12
2022-12-09T12:25:02.658Z,39.13
2022-12-09T12:30:20.822Z,39.20
2022-12-09T12:35:25.470Z,39.04
2022-12-09T12:40:45.714Z,39.10
2022-12-09T12:46:16.232Z,40.78
2022-12-09T12:51:28.781Z,42.25
2022-12-09T12:57:06.468Z,41.64
2022-12-09T13:02:48.238Z,41.01
2022-12-09T13:07:56.394Z,40.55
2022-12-09T13:13:01.849Z,42.38
2022-12-09T13:18:07.515Z,41.71
2022-12-09T13:23:46.533Z,41.65
2022-12-09T13:29:02.854Z,41.41
2022-12-09T13:34:14.133Z,41.23
2022-12-09T13:39:40.691Z,41.19
2022-12-09T13:44:42.738Z,40.90
2022-12-09T13:49:56.065Z,41.16
2022-12-09T13:54:58.431Z,41.60
2022-12-09T14:00:05.872Z,41.21
2022-12-09T14:05:26.302Z,42.69
2022-12-09T14:10:47.852Z,44.16
2022-12-09T14:16:27.723Z,44.55
2022-12-09T14:21:31.668Z,45.07
2022-12-09T14:26:53.710Z,45.31
2022-12-09T14:32:03.309Z,45.40
2022-12-09T14:37:19.593Z,45.83
2022-12-09T14:42:59.944Z,46.65
2022-12-09T14:48:08.514Z,46.23
2022-12-09T14:53:21.883Z,46.41
2022-12-09T14:58:26.331Z,46.82
2022-12-09T15:03:35.441Z,47.14
2022-12-09T15:08:42.972Z,46.07
2022-12-09T15:13:48.293Z,45.31
2022-12-09T15:18:51.738Z,44.79
2022-12-09T15:23:53.902Z,44.59
2022-12-09T15:28:56.861Z,44.73
2022-12-09T15:34:00.661Z,44.09
2022-12-09T15:39:03.981Z,44.00
2022-12-09T15:44:13.828Z,43.82
2022-12-09T15:49:21.394Z,43.82
2022-12-09T15:54:29.734Z,43.74
2022-12-09T15:59:35.766Z,43.24
2022-12-09T16:04:45.150Z,43.29
2022-12-09T16:10:05.892Z,43.07
2022-12-09T16:15:11.771Z,43.06
2022-12-09T16:20:31.670Z,43.06
2022-12-09T16:25:47.066Z,42.86
2022-12-09T16:30:51.013Z,42.67
2022-12-09T16:36:07.442Z,42.33
2022-12-09T16:41:12.432Z,42.17
2022-12-09T16:46:36.325Z,42.34
2022-12-09T16:51:39.263Z,42.37
2022-12-09T16:56:40.981Z,42.02
2022-12-09T17:01:43.173Z,41.95
2022-12-09T17:06:45.683Z,42.00
2022-12-09T17:11:49.356Z,41.93
2022-12-09T17:16:51.483Z,41.85
2022-12-09T17:21:53.303Z,41.86
2022-12-09T17:26:55.321Z,41.88
2022-12-09T17:31:57.318Z,41.78
2022-12-09T17:36:59.893Z,41.70
2022-12-09T17:42:01.900Z,41.62
2022-12-09T17:47:04.300Z,41.74
2022-12-09T17:52:06.499Z,41.57
2022-12-09T17:57:08.603Z,41.63
2022-12-09T18:02:11.509Z,41.51
2022-12-09T18:07:13.402Z,41.65
2022-12-09T18:12:15.294Z,41.28
2022-12-09T18:17:17.243Z,41.75
2022-12-09T18:22:19.189Z,41.77
2022-12-09T18:27:21.125Z,41.67
2022-12-09T18:32:23.518Z,41.50
2022-12-09T18:37:26.985Z,41.51
2022-12-09T18:42:28.926Z,41.63
2022-12-09T18:47:30.735Z,41.28
2022-12-09T18:52:32.513Z,41.02
2022-12-09T18:57:34.330Z,41.06
2022-12-09T19:02:36.271Z,41.06
2022-12-09T19:07:38.358Z,41.23
2022-12-09T19:12:50.586Z,41.03
2022-12-09T19:17:55.809Z,41.20
2022-12-09T19:22:57.976Z,40.95
2022-12-09T19:27:59.817Z,41.26
2022-12-09T19:33:01.832Z,40.98
2022-12-09T19:38:03.831Z,40.81
2022-12-09T19:43:05.830Z,41.13
2022-12-09T19:48:07.654Z,40.73
2022-12-09T19:53:09.780Z,40.91
2022-12-09T19:58:11.641Z,40.66
2022-12-09T20:03:13.878Z,40.81
2022-12-09T20:08:15.827Z,40.75
2022-12-09T20:13:17.842Z,41.09
2022-12-09T20:18:19.887Z,40.40
2022-12-09T20:23:21.714Z,40.53
2022-12-09T20:28:23.535Z,40.86
2022-12-09T20:33:25.505Z,40.97
2022-12-09T20:38:27.699Z,41.03
2022-12-09T20:43:31.101Z,40.90
2022-12-09T20:48:33.069Z,40.71
2022-12-09T20:53:36.291Z,40.46
2022-12-09T20:58:39.652Z,40.64
2022-12-09T21:03:42.595Z,40.25
2022-12-09T21:08:45.132Z,40.48
2022-12-09T21:13:50.476Z,40.51
2022-12-09T21:18:54.427Z,40.36
2022-12-09T21:23:56.668Z,40.42
2022-12-09T21:29:00.629Z,40.86
2022-12-09T21:34:05.042Z,42.08
2022-12-09T21:39:07.697Z,42.51
2022-12-09T21:44:14.790Z,41.93
2022-12-09T21:49:16.682Z,41.67
2022-12-09T21:54:18.620Z,41.29
2022-12-09T21:59:21.093Z,41.11
2022-12-09T22:04:22.861Z,41.12
2022-12-09T22:09:24.887Z,41.37
2022-12-09T22:14:27.122Z,40.97
2022-12-09T22:19:29.264Z,41.06
2022-12-09T22:24:31.121Z,41.08
2022-12-09T22:29:32.942Z,41.02
2022-12-09T22:34:34.781Z,40.94
2022-12-09T22:39:36.958Z,40.91
2022-12-09T22:44:39.371Z,41.01
2022-12-09T22:49:41.422Z,42.46
2022-12-09T22:54:43.423Z,42.70
2022-12-09T22:59:45.356Z,43.49
2022-12-09T23:04:47.300Z,42.99
2022-12-09T23:09:49.309Z,42.45
2022-12-09T23:14:51.309Z,42.27
2022-12-09T23:19:53.431Z,41.95
2022-12-09T23:24:55.219Z,41.81
2022-12-09T23:29:57.228Z,41.52
2022-12-09T23:35:03.075Z,41.52
2022-12-09T23:40:08.725Z,41.78
2022-12-09T23:45:10.958Z,41.54
2022-12-09T23:50:12.953Z,41.51
2022-12-09T23:55:15.006Z,41.13
